createdAt,value
2023-02-02T00:01:02.201Z,6.38
2023-02-02T00:03:30.322Z,6.39
2023-02-02T00:05:58.119Z,6.36
2023-02-02T00:08:25.128Z,6.28
2023-02-02T00:10:52.190Z,6.27
2023-02-02T00:13:19.170Z,6.18
2023-02-02T00:15:46.259Z,6.21
2023-02-02T00:18:13.310Z,6.22
2023-02-02T00:20:40.379Z,6.20
2023-02-02T00:23:07.477Z,6.20
2023-02-02T00:25:34.567Z,6.22
2023-02-02T00:28:01.732Z,6.19
2023-02-02T00:30:28.850Z,6.20
2023-02-02T00:32:55.892Z,6.21
2023-02-02T00:35:23.220Z,6.17
2023-02-02T00:37:50.376Z,6.17
2023-02-02T00:40:17.552Z,6.16
2023-02-02T00:42:48.982Z,6.20
2023-02-02T00:45:16.083Z,6.20
2023-02-02T00:47:49.475Z,6.21
2023-02-02T00:50:22.060Z,6.22
2023-02-02T00:52:49.372Z,6.22
2023-02-02T00:55:17.327Z,6.20
2023-02-02T00:57:44.573Z,6.22
2023-02-02T01:00:16.169Z,6.17
2023-02-02T01:02:43.375Z,6.22
2023-02-02T01:05:13.987Z,6.22
2023-02-02T01:07:41.135Z,6.25
2023-02-02T01:10:13.001Z,6.25
2023-02-02T01:12:40.855Z,6.23
2023-02-02T01:15:09.299Z,6.16
2023-02-02T01:17:36.919Z,6.16
2023-02-02T01:20:05.615Z,6.18
2023-02-02T01:22:34.724Z,6.16
2023-02-02T01:25:01.819Z,6.13
2023-02-02T01:27:28.817Z,6.15
2023-02-02T01:29:55.863Z,6.12
2023-02-02T01:32:22.948Z,6.13
2023-02-02T01:34:50.008Z,6.08
2023-02-02T01:37:17.059Z,6.01
2023-02-02T01:39:44.148Z,5.98
2023-02-02T01:42:15.035Z,6.00
2023-02-02T01:45:07.193Z,5.95
2023-02-02T01:47:41.473Z,5.91
2023-02-02T01:50:10.301Z,5.88
2023-02-02T01:52:38.724Z,5.85
2023-02-02T01:55:09.715Z,5.81
2023-02-02T01:58:00.195Z,5.80
2023-02-02T02:00:28.316Z,5.77
2023-02-02T02:03:07.825Z,5.73
2023-02-02T02:05:43.283Z,5.70
2023-02-02T02:08:19.837Z,5.65
2023-02-02T02:10:47.028Z,5.64
2023-02-02T02:13:15.168Z,5.60
2023-02-02T02:16:10.529Z,5.59
2023-02-02T02:19:03.625Z,5.55
2023-02-02T02:22:17.633Z,5.53
2023-02-02T02:25:26.465Z,5.51
2023-02-02T02:28:18.434Z,5.54
2023-02-02T02:31:01.660Z,5.54
2023-02-02T02:33:49.810Z,5.55
2023-02-02T02:36:25.215Z,5.53
2023-02-02T02:39:28.191Z,5.54
2023-02-02T02:42:00.285Z,5.54
2023-02-02T02:44:29.482Z,5.53
2023-02-02T02:46:57.323Z,5.61
2023-02-02T02:49:24.327Z,5.60
2023-02-02T02:51:53.410Z,5.61
2023-02-02T02:54:33.526Z,5.61
2023-02-02T02:57:24.909Z,5.59
2023-02-02T03:00:10.421Z,5.60
2023-02-02T03:02:58.885Z,5.63
2023-02-02T03:05:38.200Z,5.68
2023-02-02T03:08:24.169Z,5.69
2023-02-02T03:10:52.221Z,5.70
2023-02-02T03:13:19.439Z,5.80
2023-02-02T03:15:46.956Z,5.84
2023-02-02T03:18:17.448Z,5.91
2023-02-02T03:20:45.763Z,5.93
2023-02-02T03:23:13.832Z,5.95
2023-02-02T03:25:41.666Z,6.02
2023-02-02T03:28:09.034Z,6.12
2023-02-02T03:30:38.448Z,6.12
2023-02-02T03:33:06.860Z,6.17
2023-02-02T03:35:33.944Z,6.20
2023-02-02T03:38:01.077Z,6.23
2023-02-02T03:40:28.798Z,6.27
2023-02-02T03:42:56.059Z,6.27
2023-02-02T03:45:23.893Z,6.32
2023-02-02T03:47:51.181Z,6.37
2023-02-02T03:50:18.275Z,6.37
2023-02-02T03:52:45.397Z,6.39
2023-02-02T03:55:12.474Z,6.41
2023-02-02T03:57:39.828Z,6.44
2023-02-02T04:00:08.220Z,6.47
2023-02-02T04:02:35.531Z,6.45
2023-02-02T04:05:02.816Z,6.45
2023-02-02T04:07:29.884Z,6.42
2023-02-02T04:09:57.338Z,6.41
2023-02-02T04:12:24.402Z,6.47
2023-02-02T04:14:51.438Z,6.46
2023-02-02T04:17:18.535Z,6.45
2023-02-02T04:19:45.562Z,6.47
2023-02-02T04:22:12.604Z,6.48
2023-02-02T04:24:39.692Z,6.52
2023-02-02T04:27:06.982Z,6.54
2023-02-02T04:29:34.109Z,6.53
2023-02-02T04:32:01.188Z,6.52
2023-02-02T04:34:28.273Z,6.55
2023-02-02T04:36:56.151Z,6.53
2023-02-02T04:39:23.382Z,6.60
2023-02-02T04:41:50.560Z,6.58
2023-02-02T04:44:17.620Z,6.63
2023-02-02T04:46:45.488Z,6.64
2023-02-02T04:49:12.670Z,6.67
2023-02-02T04:51:40.805Z,6.70
2023-02-02T04:54:08.574Z,6.71
2023-02-02T04:56:35.992Z,6.71
2023-02-02T04:59:03.080Z,6.70
2023-02-02T05:01:30.781Z,6.71
2023-02-02T05:03:58.470Z,6.64
2023-02-02T05:06:25.759Z,6.68
2023-02-02T05:08:52.987Z,6.67
2023-02-02T05:11:22.948Z,6.65
2023-02-02T05:13:53.010Z,6.63
2023-02-02T05:16:21.969Z,6.64
2023-02-02T05:18:51.560Z,6.65
2023-02-02T05:21:19.608Z,6.63
2023-02-02T05:23:47.412Z,6.61
2023-02-02T05:26:17.623Z,6.66
2023-02-02T05:28:44.945Z,6.66
2023-02-02T05:31:12.319Z,6.65
2023-02-02T05:33:39.617Z,6.61
2023-02-02T05:36:07.469Z,6.65
2023-02-02T05:38:35.231Z,6.67
2023-02-02T05:41:02.686Z,6.68
2023-02-02T05:43:31.773Z,6.68
2023-02-02T05:45:59.255Z,6.71
2023-02-02T05:48:27.066Z,6.71
2023-02-02T05:51:00.922Z,6.68
2023-02-02T05:53:30.821Z,6.61
2023-02-02T05:55:58.344Z,6.66
2023-02-02T05:58:25.923Z,6.66
2023-02-02T06:00:55.023Z,6.64
2023-02-02T06:03:24.414Z,6.60
2023-02-02T06:05:51.616Z,6.58
2023-02-02T06:08:18.720Z,6.58
2023-02-02T06:10:46.033Z,6.53
2023-02-02T06:13:13.074Z,6.45
2023-02-02T06:15:42.123Z,6.50
2023-02-02T06:18:10.082Z,6.52
2023-02-02T06:20:37.637Z,6.54
2023-02-02T06:23:05.267Z,6.48
2023-02-02T06:25:32.470Z,6.47
2023-02-02T06:28:00.376Z,6.46
2023-02-02T06:30:28.358Z,6.42
2023-02-02T06:32:55.405Z,6.41
2023-02-02T06:35:23.231Z,6.32
2023-02-02T06:37:50.477Z,6.28
2023-02-02T06:40:17.934Z,6.34
2023-02-02T06:42:45.001Z,6.33
2023-02-02T06:45:12.242Z,6.28
2023-02-02T06:47:39.355Z,6.27
2023-02-02T06:50:06.960Z,6.33
2023-02-02T06:52:33.979Z,6.33
2023-02-02T06:55:01.091Z,6.34
2023-02-02T06:57:28.460Z,6.34
2023-02-02T06:59:55.511Z,6.31
2023-02-02T07:02:23.506Z,6.34
2023-02-02T07:04:51.266Z,6.26
2023-02-02T07:07:18.376Z,6.28
2023-02-02T07:09:45.406Z,6.26
2023-02-02T07:12:12.478Z,6.23
2023-02-02T07:14:39.477Z,6.22
2023-02-02T07:17:07.057Z,6.30
2023-02-02T07:19:34.304Z,6.27
2023-02-02T07:22:01.437Z,6.25
2023-02-02T07:24:28.802Z,6.26
2023-02-02T07:26:58.234Z,6.25
2023-02-02T07:29:25.499Z,6.28
2023-02-02T07:31:53.214Z,6.25
2023-02-02T07:34:20.300Z,6.17
2023-02-02T07:36:47.426Z,6.27
2023-02-02T07:39:14.769Z,6.29
2023-02-02T07:41:43.627Z,6.25
2023-02-02T07:44:16.966Z,6.33
2023-02-02T07:46:45.192Z,6.33
2023-02-02T07:49:16.757Z,6.37
2023-02-02T07:51:47.687Z,6.34
2023-02-02T07:54:15.609Z,6.43
2023-02-02T07:56:42.719Z,6.44
2023-02-02T07:59:10.636Z,6.46
2023-02-02T08:01:38.318Z,6.41
2023-02-02T08:04:06.093Z,6.49
2023-02-02T08:06:36.125Z,6.52
2023-02-02T08:09:05.145Z,6.54
2023-02-02T08:11:32.225Z,6.57
2023-02-02T08:14:00.979Z,6.60
2023-02-02T08:16:30.268Z,6.65
2023-02-02T08:19:00.521Z,6.63
2023-02-02T08:21:28.074Z,6.66
2023-02-02T08:23:55.375Z,6.69
2023-02-02T08:26:28.195Z,6.68
2023-02-02T08:29:04.224Z,6.70
2023-02-02T08:31:37.871Z,6.69
2023-02-02T08:34:05.377Z,6.69
2023-02-02T08:36:35.394Z,6.59
2023-02-02T08:39:05.926Z,6.71
2023-02-02T08:41:33.815Z,6.76
2023-02-02T08:44:01.382Z,6.76
2023-02-02T08:46:28.724Z,6.77
2023-02-02T08:48:55.907Z,6.80
2023-02-02T08:51:23.080Z,6.85
2023-02-02T08:53:50.304Z,6.83
2023-02-02T08:56:20.566Z,6.93
2023-02-02T08:58:50.253Z,6.96
2023-02-02T09:01:18.762Z,6.96
2023-02-02T09:03:46.145Z,6.96
2023-02-02T09:06:17.449Z,6.99
2023-02-02T09:08:45.891Z,7.02
2023-02-02T09:11:18.353Z,7.04
2023-02-02T09:13:47.565Z,7.06
2023-02-02T09:16:17.211Z,7.09
2023-02-02T09:18:45.007Z,7.15
2023-02-02T09:21:14.899Z,7.12
2023-02-02T09:23:43.528Z,7.09
2023-02-02T09:26:27.229Z,7.15
2023-02-02T09:28:55.658Z,7.19
2023-02-02T09:31:23.474Z,7.17
2023-02-02T09:33:50.908Z,7.16
2023-02-02T09:36:20.694Z,7.19
2023-02-02T09:38:48.616Z,7.18
2023-02-02T09:41:28.089Z,7.24
2023-02-02T09:43:55.168Z,7.25
2023-02-02T09:46:53.993Z,7.18
2023-02-02T09:49:32.749Z,7.19
2023-02-02T09:52:10.647Z,7.24
2023-02-02T09:54:44.722Z,7.24
2023-02-02T09:57:29.260Z,7.24
2023-02-02T09:59:56.701Z,7.15
2023-02-02T10:02:33.491Z,7.22
2023-02-02T10:05:13.691Z,7.21
2023-02-02T10:07:45.830Z,7.21
2023-02-02T10:10:27.119Z,7.23
2023-02-02T10:13:00.132Z,7.25
2023-02-02T10:15:45.991Z,7.25
2023-02-02T10:18:19.606Z,7.25
2023-02-02T10:21:11.592Z,7.22
2023-02-02T10:23:44.473Z,7.19
2023-02-02T10:26:21.541Z,7.17
2023-02-02T10:29:17.802Z,7.23
2023-02-02T10:31:59.074Z,7.27
2023-02-02T10:34:40.595Z,7.27
2023-02-02T10:37:22.891Z,7.23
2023-02-02T10:40:23.043Z,7.27
2023-02-02T10:43:33.528Z,7.28
2023-02-02T10:46:03.758Z,7.29
2023-02-02T10:48:36.287Z,7.27
2023-02-02T10:51:13.811Z,7.27
2023-02-02T10:53:50.225Z,7.31
2023-02-02T10:56:21.323Z,7.31
2023-02-02T10:59:00.964Z,7.31
2023-02-02T11:01:28.484Z,7.27
2023-02-02T11:04:14.929Z,7.32
2023-02-02T11:06:51.222Z,7.29
2023-02-02T11:09:21.564Z,7.22
2023-02-02T11:11:57.459Z,7.26
2023-02-02T11:14:45.266Z,7.25
2023-02-02T11:17:24.988Z,7.24
2023-02-02T11:19:53.340Z,7.22
2023-02-02T11:22:30.875Z,7.25
2023-02-02T11:25:04.393Z,7.31
2023-02-02T11:27:43.216Z,7.23
2023-02-02T11:30:36.157Z,7.28
2023-02-02T11:33:33.459Z,7.32
2023-02-02T11:36:02.024Z,7.34
2023-02-02T11:38:30.036Z,7.30
2023-02-02T11:41:03.941Z,7.33
2023-02-02T11:43:54.302Z,7.37
2023-02-02T11:46:32.838Z,7.38
2023-02-02T11:49:02.954Z,7.42
2023-02-02T11:51:31.687Z,7.44
2023-02-02T11:54:20.803Z,7.44
2023-02-02T11:56:54.471Z,7.40
2023-02-02T11:59:36.435Z,7.42
2023-02-02T12:02:12.678Z,7.41
2023-02-02T12:04:40.683Z,7.37
2023-02-02T12:07:24.215Z,7.43
2023-02-02T12:09:51.741Z,7.44
2023-02-02T12:12:44.033Z,7.44
2023-02-02T12:15:11.107Z,7.41
2023-02-02T12:17:41.637Z,7.36
2023-02-02T12:20:20.589Z,7.36
2023-02-02T12:23:02.635Z,7.35
2023-02-02T12:25:29.610Z,7.35
2023-02-02T12:27:59.293Z,7.36
2023-02-02T12:30:39.636Z,7.36
2023-02-02T12:33:27.357Z,7.39
2023-02-02T12:36:11.441Z,7.36
2023-02-02T12:38:47.571Z,7.36
2023-02-02T12:41:42.501Z,7.32
2023-02-02T12:44:24.604Z,7.29
2023-02-02T12:47:07.329Z,7.33
2023-02-02T12:49:59.587Z,7.34
2023-02-02T12:53:04.628Z,7.35
2023-02-02T12:55:44.088Z,7.40
2023-02-02T12:58:26.083Z,7.39
2023-02-02T13:00:55.826Z,7.36
2023-02-02T13:03:56.098Z,7.36
2023-02-02T13:07:11.983Z,7.29
2023-02-02T13:09:58.371Z,7.27
2023-02-02T13:12:27.185Z,7.23
2023-02-02T13:15:07.634Z,7.18
2023-02-02T13:17:51.340Z,7.16
2023-02-02T13:20:42.992Z,7.16
2023-02-02T13:23:20.189Z,7.11
2023-02-02T13:26:06.176Z,7.13
2023-02-02T13:28:58.348Z,7.10
2023-02-02T13:31:58.469Z,7.08
2023-02-02T13:34:50.248Z,6.87
2023-02-02T13:37:41.493Z,6.96
2023-02-02T13:40:32.074Z,6.87
2023-02-02T13:43:34.974Z,6.88
2023-02-02T13:46:07.422Z,6.86
2023-02-02T13:49:16.046Z,6.91
2023-02-02T13:51:58.357Z,6.88
2023-02-02T13:54:53.172Z,6.82
2023-02-02T13:57:53.121Z,6.78
2023-02-02T14:00:30.432Z,6.82
2023-02-02T14:03:03.440Z,6.81
2023-02-02T14:05:41.477Z,6.84
2023-02-02T14:08:18.558Z,6.78
2023-02-02T14:10:58.817Z,6.84
2023-02-02T14:14:01.975Z,6.82
2023-02-02T14:16:31.484Z,6.82
2023-02-02T14:19:00.775Z,6.84
2023-02-02T14:21:33.560Z,6.84
2023-02-02T14:24:38.584Z,6.84
2023-02-02T14:27:28.567Z,6.79
2023-02-02T14:29:55.655Z,6.67
2023-02-02T14:32:28.289Z,6.83
2023-02-02T14:35:20.343Z,6.74
2023-02-02T14:37:59.249Z,6.84
2023-02-02T14:40:52.853Z,6.87
2023-02-02T14:43:45.765Z,6.82
2023-02-02T14:46:13.117Z,6.81
2023-02-02T14:48:46.016Z,6.84
2023-02-02T14:51:21.929Z,6.82
2023-02-02T14:54:05.864Z,6.89
2023-02-02T14:56:52.948Z,6.83
2023-02-02T14:59:28.188Z,6.80
2023-02-02T15:02:03.578Z,6.52
2023-02-02T15:04:30.698Z,6.75
2023-02-02T15:07:23.943Z,6.74
2023-02-02T15:09:56.437Z,6.73
2023-02-02T15:12:28.355Z,6.75
2023-02-02T15:15:01.464Z,6.70
2023-02-02T15:17:49.563Z,6.74
2023-02-02T15:20:32.116Z,6.75
2023-02-02T15:23:00.824Z,6.75
2023-02-02T15:25:34.120Z,6.72
2023-02-02T15:28:01.154Z,6.72
2023-02-02T15:30:34.468Z,6.73
2023-02-02T15:33:15.326Z,6.74
2023-02-02T15:35:43.371Z,6.72
2023-02-02T15:38:17.516Z,6.76
2023-02-02T15:40:44.951Z,6.78
2023-02-02T15:43:13.776Z,6.79
2023-02-02T15:45:52.478Z,6.79
2023-02-02T15:48:39.873Z,6.80
2023-02-02T15:51:16.076Z,6.84
2023-02-02T15:53:43.096Z,6.84
2023-02-02T15:56:25.274Z,6.86
2023-02-02T15:58:58.549Z,6.84
2023-02-02T16:01:29.579Z,6.93
2023-02-02T16:04:02.913Z,6.91
2023-02-02T16:06:31.299Z,6.90
2023-02-02T16:08:58.863Z,6.90
2023-02-02T16:11:25.996Z,6.90
2023-02-02T16:14:05.103Z,6.88
2023-02-02T16:16:36.067Z,6.86
2023-02-02T16:19:09.146Z,6.89
2023-02-02T16:21:44.148Z,6.90
2023-02-02T16:24:26.730Z,6.95
2023-02-02T16:26:57.454Z,6.95
2023-02-02T16:29:25.338Z,6.95
2023-02-02T16:31:52.510Z,6.98
2023-02-02T16:34:40.385Z,6.94
2023-02-02T16:37:27.386Z,6.94
2023-02-02T16:40:16.868Z,6.93
2023-02-02T16:42:43.899Z,6.94
2023-02-02T16:45:34.274Z,6.99
2023-02-02T16:48:32.519Z,6.89
2023-02-02T16:51:17.952Z,7.00
2023-02-02T16:53:56.484Z,6.92
2023-02-02T16:56:37.250Z,7.03
2023-02-02T16:59:14.464Z,7.04
2023-02-02T17:01:55.579Z,7.05
2023-02-02T17:04:28.491Z,7.05
2023-02-02T17:06:58.604Z,7.06
2023-02-02T17:09:37.233Z,7.08
2023-02-02T17:12:31.649Z,7.06
2023-02-02T17:15:05.033Z,7.06
2023-02-02T17:17:32.140Z,7.06
2023-02-02T17:19:59.163Z,7.13
2023-02-02T17:22:29.763Z,7.16
2023-02-02T17:24:58.724Z,7.13
2023-02-02T17:27:29.121Z,7.13
2023-02-02T17:29:58.508Z,7.16
2023-02-02T17:32:26.845Z,7.22
2023-02-02T17:34:54.788Z,7.18
2023-02-02T17:37:21.889Z,7.24
2023-02-02T17:39:50.687Z,7.26
2023-02-02T17:42:27.491Z,7.25
2023-02-02T17:44:54.605Z,7.24
2023-02-02T17:47:21.707Z,7.26
2023-02-02T17:49:48.738Z,7.28
2023-02-02T17:52:15.776Z,7.29
2023-02-02T17:54:42.789Z,7.33
2023-02-02T17:57:09.849Z,7.39
2023-02-02T17:59:37.378Z,7.35
2023-02-02T18:02:04.506Z,7.34
2023-02-02T18:04:31.655Z,7.32
2023-02-02T18:06:58.653Z,7.34
2023-02-02T18:09:26.115Z,7.38
2023-02-02T18:11:53.321Z,7.34
2023-02-02T18:14:20.350Z,7.31
2023-02-02T18:16:47.357Z,7.36
2023-02-02T18:19:14.385Z,7.35
2023-02-02T18:21:41.394Z,7.28
2023-02-02T18:24:08.499Z,7.30
2023-02-02T18:26:35.922Z,7.38
2023-02-02T18:29:03.543Z,7.36
2023-02-02T18:31:31.268Z,7.33
2023-02-02T18:33:58.514Z,7.39
2023-02-02T18:36:25.690Z,7.33
2023-02-02T18:38:54.037Z,7.32
2023-02-02T18:41:21.506Z,7.33
2023-02-02T18:43:48.647Z,7.33
2023-02-02T18:46:16.609Z,7.29
2023-02-02T18:48:43.759Z,7.36
2023-02-02T18:51:16.955Z,7.37
2023-02-02T18:53:45.040Z,7.37
2023-02-02T18:56:13.704Z,7.38
2023-02-02T18:58:40.993Z,7.33
2023-02-02T19:01:08.392Z,7.36
2023-02-02T19:03:36.847Z,7.38
2023-02-02T19:06:24.036Z,7.34
2023-02-02T19:08:51.477Z,7.31
2023-02-02T19:11:21.966Z,7.37
2023-02-02T19:13:50.433Z,7.38
2023-02-02T19:16:24.393Z,7.36
2023-02-02T19:18:55.323Z,7.37
2023-02-02T19:21:23.151Z,7.38
2023-02-02T19:23:50.167Z,7.38
2023-02-02T19:26:23.207Z,7.34
2023-02-02T19:28:51.784Z,7.36
2023-02-02T19:31:19.603Z,7.39
2023-02-02T19:33:52.265Z,7.33
2023-02-02T19:36:20.616Z,7.37
2023-02-02T19:38:50.097Z,7.33
2023-02-02T19:41:22.407Z,7.34
2023-02-02T19:43:55.313Z,7.36
2023-02-02T19:46:25.618Z,7.36
2023-02-02T19:49:01.314Z,7.30
2023-02-02T19:51:34.066Z,7.32
2023-02-02T19:54:01.292Z,7.33
2023-02-02T19:56:36.064Z,7.32
2023-02-02T19:59:03.738Z,7.24
2023-02-02T20:01:34.858Z,7.19
2023-02-02T20:04:03.994Z,7.26
2023-02-02T20:06:32.148Z,7.21
2023-02-02T20:09:04.622Z,7.22
2023-02-02T20:11:35.997Z,7.22
2023-02-02T20:14:21.560Z,7.16
2023-02-02T20:16:52.562Z,7.18
2023-02-02T20:19:23.446Z,7.18
2023-02-02T20:21:51.832Z,7.17
2023-02-02T20:24:26.716Z,7.17
2023-02-02T20:26:58.313Z,7.22
2023-02-02T20:29:28.294Z,7.25
2023-02-02T20:31:58.764Z,7.28
2023-02-02T20:34:27.952Z,7.33
2023-02-02T20:36:59.721Z,7.38
2023-02-02T20:39:36.910Z,7.43
2023-02-02T20:42:04.668Z,7.45
2023-02-02T20:44:33.975Z,7.47
2023-02-02T20:47:01.414Z,7.39
2023-02-02T20:49:31.560Z,7.53
2023-02-02T20:52:01.881Z,7.51
2023-02-02T20:54:30.528Z,7.55
2023-02-02T20:56:58.116Z,7.56
2023-02-02T20:59:25.313Z,7.47
2023-02-02T21:01:53.064Z,7.55
2023-02-02T21:04:21.342Z,7.55
2023-02-02T21:06:49.165Z,7.57
2023-02-02T21:09:16.849Z,7.58
2023-02-02T21:11:44.215Z,7.56
2023-02-02T21:14:11.321Z,7.60
2023-02-02T21:16:38.641Z,7.65
2023-02-02T21:19:05.988Z,7.67
2023-02-02T21:21:33.202Z,7.70
2023-02-02T21:24:00.991Z,7.71
2023-02-02T21:26:30.507Z,7.71
2023-02-02T21:28:58.597Z,7.67
2023-02-02T21:31:26.733Z,7.71
2023-02-02T21:33:54.336Z,7.74
2023-02-02T21:36:36.987Z,7.73
2023-02-02T21:39:29.704Z,7.75
2023-02-02T21:42:13.472Z,7.77
2023-02-02T21:44:46.692Z,7.74
2023-02-02T21:47:27.132Z,7.76
2023-02-02T21:50:01.490Z,7.76
2023-02-02T21:52:33.227Z,7.80
2023-02-02T21:55:06.814Z,7.80
2023-02-02T21:57:37.321Z,7.86
2023-02-02T22:00:33.656Z,7.92
2023-02-02T22:03:00.917Z,7.94
2023-02-02T22:05:36.011Z,7.98
2023-02-02T22:08:18.693Z,7.99
2023-02-02T22:10:47.322Z,8.03
2023-02-02T22:13:24.191Z,8.07
2023-02-02T22:15:53.356Z,8.10
2023-02-02T22:18:25.269Z,8.11
2023-02-02T22:20:56.222Z,8.10
2023-02-02T22:23:28.641Z,8.14
2023-02-02T22:25:58.284Z,8.17
2023-02-02T22:28:28.099Z,8.12
2023-02-02T22:30:57.156Z,8.15
2023-02-02T22:33:26.273Z,8.16
2023-02-02T22:35:53.666Z,8.21
2023-02-02T22:38:23.400Z,8.16
2023-02-02T22:40:51.585Z,8.20
2023-02-02T22:43:19.980Z,8.18
2023-02-02T22:45:47.758Z,8.20
2023-02-02T22:48:15.867Z,8.20
2023-02-02T22:50:43.183Z,8.19
2023-02-02T22:53:10.736Z,8.19
2023-02-02T22:55:37.863Z,8.20
2023-02-02T22:58:04.905Z,8.20
2023-02-02T23:00:33.034Z,8.22
2023-02-02T23:03:00.545Z,8.15
2023-02-02T23:05:28.466Z,8.10
2023-02-02T23:07:55.878Z,8.08
2023-02-02T23:10:26.269Z,8.05
2023-02-02T23:12:55.693Z,8.06
2023-02-02T23:15:23.314Z,8.06
2023-02-02T23:17:50.594Z,8.01
2023-02-02T23:20:18.121Z,8.08
2023-02-02T23:22:45.381Z,8.05
2023-02-02T23:25:13.960Z,8.05
2023-02-02T23:27:41.300Z,7.99
2023-02-02T23:30:11.600Z,8.08
2023-02-02T23:32:38.774Z,8.03
2023-02-02T23:35:10.131Z,8.06
2023-02-02T23:37:37.725Z,8.07
2023-02-02T23:40:05.092Z,8.11
2023-02-02T23:42:32.312Z,8.11
2023-02-02T23:44:59.390Z,8.16
2023-02-02T23:47:26.850Z,8.15
2023-02-02T23:49:57.119Z,8.16
2023-02-02T23:52:24.970Z,8.15
2023-02-02T23:54:53.203Z,8.15
2023-02-02T23:57:21.061Z,8.11
2023-02-02T23:59:48.109Z,8.07
